Time;durP1;ratioP1;P1;durP2;ratioP2;P2;SDS_P1;SDS_P2;PMS_P1;PMS_P2;Temp;Humidity;BMP_temperature;BMP_pressure;BME280_temperature;BME280_humidity;BME280_pressure;Samples;Min_cycle;Max_cycle;Signal;HPM_P1;HPM_P2
2022/04/17 00:01:42;;;;;;;2.97;1.83;;;8.10;73.20;;;;;;5008942;28;20133;-48
2022/04/17 00:04:10;;;;;;;2.22;1.90;;;8.00;73.60;;;;;;4993972;28;20402;-46
2022/04/17 00:06:37;;;;;;;2.83;2.13;;;8.00;73.90;;;;;;4993852;28;20105;-48
2022/04/17 00:09:02;;;;;;;2.65;1.70;;;8.00;74.20;;;;;;4993491;28;20022;-48
2022/04/17 00:11:28;;;;;;;2.75;1.60;;;8.00;74.20;;;;;;4993411;28;20029;-47
2022/04/17 00:13:55;;;;;;;1.88;1.58;;;8.00;74.30;;;;;;4993911;28;20031;-44
2022/04/17 00:16:20;;;;;;;3.45;2.00;;;8.00;74.60;;;;;;4993409;28;20113;-44
2022/04/17 00:18:46;;;;;;;2.20;2.00;;;7.90;75.00;;;;;;4993203;28;20031;-46
2022/04/17 00:21:11;;;;;;;1.60;1.50;;;8.00;75.00;;;;;;4993150;28;20033;-46
2022/04/17 00:23:37;;;;;;;1.73;1.63;;;7.90;74.90;;;;;;4992717;28;20030;-50
2022/04/17 00:26:02;;;;;;;2.10;1.85;;;8.00;75.00;;;;;;4993625;28;20031;-44
2022/04/17 00:28:28;;;;;;;4.50;2.00;;;7.90;75.00;;;;;;5034220;23;20071;-42
2022/04/17 00:30:54;;;;;;;2.53;1.83;;;7.90;75.10;;;;;;5052769;28;20033;-48
2022/04/17 00:33:20;;;;;;;1.70;1.60;;;7.90;75.10;;;;;;5052889;28;20017;-49
2022/04/17 00:35:45;;;;;;;4.90;1.88;;;7.80;75.50;;;;;;5052950;28;20108;-47
2022/04/17 00:38:11;;;;;;;5.78;1.58;;;7.80;75.40;;;;;;5052251;28;20424;-43
2022/04/17 00:40:37;;;;;;;1.63;1.55;;;7.70;75.60;;;;;;5052695;28;20033;-48
2022/04/17 00:43:20;;;;;;;3.13;2.22;;;7.70;75.50;;;;;;5052569;28;20036;-50
2022/04/17 00:45:46;;;;;;;1.73;1.33;;;7.70;75.70;;;;;;5052971;28;20066;-53
2022/04/17 00:48:11;;;;;;;1.52;1.42;;;7.70;75.70;;;;;;5050472;28;20512;-48
2022/04/17 00:50:37;;;;;;;2.60;1.40;;;7.70;75.90;;;;;;5052150;28;20033;-43
2022/04/17 00:53:03;;;;;;;2.83;1.92;;;7.60;76.10;;;;;;5052205;28;20028;-51
2022/04/17 00:55:28;;;;;;;1.20;1.20;;;7.60;76.20;;;;;;5051997;28;20017;-49
2022/04/17 00:57:54;;;;;;;1.80;1.60;;;7.60;76.20;;;;;;5033877;28;20028;-51
2022/04/17 01:00:19;;;;;;;1.85;1.58;;;7.60;76.60;;;;;;5050697;28;20025;-47
2022/04/17 01:02:45;;;;;;;2.20;2.00;;;7.60;76.60;;;;;;5051892;28;20025;-51
2022/04/17 01:05:11;;;;;;;2.15;1.73;;;7.50;76.70;;;;;;5052077;28;20036;-51
2022/04/17 01:07:37;;;;;;;1.73;1.58;;;7.50;77.00;;;;;;5051547;28;20029;-48
2022/04/17 01:10:03;;;;;;;3.00;1.88;;;7.50;76.80;;;;;;5051776;28;20553;-49
2022/04/17 01:12:29;;;;;;;3.15;1.75;;;7.50;77.20;;;;;;5051977;28;20047;-42
2022/04/17 01:14:55;;;;;;;4.32;1.27;;;7.50;77.10;;;;;;5052226;28;20092;-47
2022/04/17 01:17:21;;;;;;;5.00;1.70;;;7.50;77.20;;;;;;5051271;28;20036;-47
2022/04/17 01:19:47;;;;;;;1.50;1.40;;;7.50;77.30;;;;;;5051684;28;20032;-49
2022/04/17 01:22:12;;;;;;;2.17;1.98;;;7.40;77.50;;;;;;5050509;28;20385;-51
2022/04/17 01:27:24;;;;;;;1.53;1.43;;;7.30;78.00;;;;;;5051510;28;20070;-48
2022/04/17 01:29:51;;;;;;;4.13;1.73;;;7.30;78.00;;;;;;5051648;28;20279;-46
2022/04/17 01:32:17;;;;;;;4.13;1.80;;;7.40;78.10;;;;;;5051664;28;20115;-51
2022/04/17 01:34:43;;;;;;;2.88;1.50;;;7.30;78.20;;;;;;5052082;28;20047;-46
2022/04/17 01:37:10;;;;;;;1.75;1.65;;;7.30;78.30;;;;;;5052641;28;20021;-52
2022/04/17 01:39:35;;;;;;;4.10;1.88;;;7.20;78.50;;;;;;5053783;28;20108;-48
2022/04/17 01:42:01;;;;;;;3.72;1.83;;;7.20;79.00;;;;;;5051962;28;20484;-50
2022/04/17 01:44:28;;;;;;;2.40;2.15;;;7.10;79.30;;;;;;5051599;28;20033;-54
2022/04/17 01:46:55;;;;;;;1.67;1.58;;;6.90;79.90;;;;;;5051050;28;20484;-42
2022/04/17 01:49:21;;;;;;;3.10;1.90;;;6.90;80.10;;;;;;5051364;28;20037;-46
2022/04/17 01:51:48;;;;;;;1.85;1.70;;;6.90;80.20;;;;;;5051214;28;20036;-46
2022/04/17 01:54:15;;;;;;;3.17;2.10;;;6.80;80.80;;;;;;5051429;28;20028;-49
2022/04/17 01:56:42;;;;;;;2.95;2.10;;;6.70;81.00;;;;;;5051015;28;20025;-46
2022/04/17 01:59:09;;;;;;;2.15;2.05;;;6.60;81.30;;;;;;5052993;28;20025;-47
2022/04/17 02:01:36;;;;;;;2.63;2.10;;;6.60;81.50;;;;;;5051616;28;20495;-48
2022/04/17 02:04:02;;;;;;;1.95;1.85;;;6.50;82.20;;;;;;5051283;28;20064;-48
2022/04/17 02:06:28;;;;;;;3.70;2.47;;;6.50;82.60;;;;;;5051093;28;20025;-56
2022/04/17 02:08:54;;;;;;;5.55;2.08;;;6.50;83.00;;;;;;5050687;28;20029;-44
2022/04/17 02:11:21;;;;;;;2.45;2.17;;;6.40;84.60;;;;;;5051156;28;20028;-51
2022/04/17 02:13:48;;;;;;;3.17;2.28;;;6.50;86.80;;;;;;5051143;28;20029;-50
2022/04/17 02:16:15;;;;;;;2.50;2.30;;;6.50;84.80;;;;;;5051183;28;20052;-49
2022/04/17 02:18:40;;;;;;;4.15;2.10;;;6.50;83.30;;;;;;5050632;28;20028;-50
2022/04/17 02:21:08;;;;;;;3.85;2.20;;;6.60;83.30;;;;;;5051174;28;20017;-47
2022/04/17 02:23:33;;;;;;;2.78;2.30;;;6.60;83.30;;;;;;5049737;28;20021;-47
2022/04/17 02:26:00;;;;;;;2.72;2.22;;;6.60;83.30;;;;;;5051128;28;20538;-50
2022/04/17 02:28:27;;;;;;;3.97;2.72;;;6.60;83.30;;;;;;5050608;28;20459;-47
2022/04/17 02:30:52;;;;;;;2.35;2.15;;;6.60;83.20;;;;;;5050888;28;20017;-47
2022/04/17 02:33:18;;;;;;;3.55;2.58;;;6.70;83.00;;;;;;5050889;28;20100;-43
2022/04/17 02:35:43;;;;;;;3.42;2.10;;;6.70;83.20;;;;;;5050983;28;20027;-45
2022/04/17 02:38:09;;;;;;;4.68;2.65;;;6.60;83.30;;;;;;5050576;28;20017;-47
2022/04/17 02:40:35;;;;;;;4.57;2.67;;;6.50;83.90;;;;;;5050877;28;20025;-48
2022/04/17 02:43:00;;;;;;;3.42;2.67;;;6.50;84.20;;;;;;5051882;28;20477;-47
2022/04/17 02:45:27;;;;;;;4.13;2.60;;;6.40;84.70;;;;;;5051418;28;20025;-46
2022/04/17 02:47:53;;;;;;;3.13;2.85;;;6.20;85.00;;;;;;5054305;28;20071;-51
2022/04/17 02:50:20;;;;;;;3.80;2.70;;;6.20;85.50;;;;;;5054359;28;20079;-49
2022/04/17 02:52:46;;;;;;;5.63;2.40;;;6.20;85.80;;;;;;5054391;28;20032;-42
2022/04/17 02:55:12;;;;;;;2.55;2.35;;;6.20;85.80;;;;;;5053913;28;20017;-48
2022/04/17 02:57:38;;;;;;;4.72;2.50;;;6.10;86.10;;;;;;5053992;28;20618;-47
2022/04/17 03:00:06;;;;;;;2.38;2.20;;;6.00;86.40;;;;;;5053248;28;20021;-47
2022/04/17 03:05:36;;;;;;;2.58;2.35;;;5.90;87.20;;;;;;5054601;28;20036;-43
2022/04/17 03:08:13;;;;;;;3.63;2.60;;;5.90;87.40;;;;;;5054142;28;20214;-49
2022/04/17 03:10:43;;;;;;;2.70;2.50;;;5.80;87.60;;;;;;5054109;28;20163;-50
2022/04/17 03:13:10;;;;;;;2.58;2.38;;;5.90;87.80;;;;;;5052645;28;20025;-50
2022/04/17 03:15:37;;;;;;;3.75;1.98;;;5.90;87.90;;;;;;5054013;28;20025;-50
2022/04/17 03:18:04;;;;;;;3.10;2.50;;;5.90;87.70;;;;;;5053626;28;20209;-45
2022/04/17 03:20:30;;;;;;;7.72;2.63;;;5.90;88.00;;;;;;5053684;28;20396;-44
2022/04/17 03:22:55;;;;;;;2.60;2.40;;;5.90;88.00;;;;;;5053721;28;20028;-52
2022/04/17 03:25:21;;;;;;;3.67;2.28;;;5.80;88.20;;;;;;5053770;28;20477;-52
2022/04/17 03:27:47;;;;;;;2.67;2.45;;;5.90;88.40;;;;;;5052986;28;20059;-49
2022/04/17 03:30:17;;;;;;;4.40;2.72;;;5.80;88.50;;;;;;5053449;28;20057;-48
2022/04/17 03:32:46;;;;;;;2.67;2.47;;;5.70;89.00;;;;;;5053809;28;20021;-46
2022/04/17 03:35:13;;;;;;;5.40;2.88;;;5.70;89.40;;;;;;5053464;28;20031;-51
2022/04/17 03:37:42;;;;;;;5.43;3.13;;;5.60;89.60;;;;;;5052032;28;20108;-51
2022/04/17 03:40:08;;;;;;;2.38;2.28;;;5.60;89.90;;;;;;5053341;28;20044;-49
2022/04/17 03:42:35;;;;;;;2.47;2.28;;;5.60;90.10;;;;;;5053894;28;20037;-48
2022/04/17 03:45:02;;;;;;;3.03;2.47;;;5.60;90.10;;;;;;5053315;28;20076;-45
2022/04/17 03:47:28;;;;;;;3.13;2.35;;;5.50;90.30;;;;;;5053083;28;20021;-46
2022/04/17 03:49:53;;;;;;;3.00;2.60;;;5.50;90.50;;;;;;5053200;28;20518;-47
2022/04/17 03:52:19;;;;;;;3.08;2.55;;;5.40;90.50;;;;;;5053347;28;20394;-51
2022/04/17 03:54:45;;;;;;;4.32;2.65;;;5.40;90.70;;;;;;5052655;28;20025;-48
2022/04/17 03:57:11;;;;;;;5.05;2.28;;;5.40;90.80;;;;;;5050718;28;20764;-49
2022/04/17 03:59:36;;;;;;;5.43;2.60;;;5.30;91.00;;;;;;5052956;28;20078;-49
2022/04/17 04:02:02;;;;;;;4.88;2.47;;;5.30;91.20;;;;;;5053442;28;20029;-49
2022/04/17 04:04:28;;;;;;;4.40;2.40;;;5.30;91.20;;;;;;5053056;28;20523;-49
2022/04/17 04:06:53;;;;;;;3.17;2.60;;;5.30;91.20;;;;;;5052622;28;20492;-47
2022/04/17 04:09:19;;;;;;;3.40;2.90;;;5.40;91.30;;;;;;5052785;28;20428;-46
2022/04/17 04:11:45;;;;;;;3.42;2.42;;;5.30;91.40;;;;;;5052973;28;20029;-51
2022/04/17 04:14:11;;;;;;;3.22;2.95;;;5.30;91.50;;;;;;5052955;28;20017;-48
2022/04/17 04:16:36;;;;;;;3.53;2.35;;;5.40;91.60;;;;;;5052812;28;20092;-51
2022/04/17 04:19:04;;;;;;;2.72;2.22;;;5.30;91.60;;;;;;5052525;28;20086;-45
2022/04/17 04:21:30;;;;;;;3.70;2.97;;;5.30;91.80;;;;;;5052937;28;20127;-47
2022/04/17 04:23:56;;;;;;;2.63;2.42;;;5.30;91.90;;;;;;5052869;28;20586;-47
2022/04/17 04:26:21;;;;;;;4.28;3.20;;;5.20;92.00;;;;;;5052832;28;20028;-49
2022/04/17 04:28:47;;;;;;;7.18;2.90;;;5.20;92.20;;;;;;5052515;28;20400;-48
2022/04/17 04:31:14;;;;;;;12.07;4.68;;;5.20;92.40;;;;;;5053034;28;20032;-50
2022/04/17 04:33:42;;;;;;;4.18;2.50;;;5.20;92.50;;;;;;5053445;28;20013;-44
2022/04/17 04:36:11;;;;;;;9.73;2.95;;;5.20;92.70;;;;;;5052677;28;20480;-47
2022/04/17 04:38:37;;;;;;;3.42;2.58;;;5.20;92.80;;;;;;5050700;28;20036;-49
2022/04/17 04:41:03;;;;;;;2.75;2.63;;;5.20;93.20;;;;;;5052320;28;20035;-50
2022/04/17 04:43:28;;;;;;;7.45;3.28;;;5.10;93.00;;;;;;5052302;28;20024;-46
2022/04/17 04:46:06;;;;;;;3.20;2.90;;;5.10;93.30;;;;;;5052474;28;20025;-49
2022/04/17 04:51:20;;;;;;;3.63;2.83;;;5.10;93.50;;;;;;5052544;28;20032;-49
2022/04/17 04:53:46;;;;;;;4.60;2.83;;;5.10;93.60;;;;;;5052164;28;20040;-44
2022/04/17 04:56:15;;;;;;;7.65;3.33;;;5.20;93.60;;;;;;5050447;28;20403;-51
2022/04/17 04:58:41;;;;;;;3.63;3.33;;;5.30;93.50;;;;;;5051446;28;20404;-51
2022/04/17 05:01:07;;;;;;;3.83;3.17;;;5.50;93.30;;;;;;5052183;28;20053;-49
2022/04/17 05:03:33;;;;;;;3.95;3.15;;;5.60;93.00;;;;;;5052111;28;20025;-50
2022/04/17 05:05:58;;;;;;;3.17;2.92;;;5.70;92.90;;;;;;5051827;28;20032;-46
2022/04/17 05:08:24;;;;;;;4.70;2.97;;;5.80;92.80;;;;;;5051327;28;20381;-52
2022/04/17 05:10:50;;;;;;;5.47;3.38;;;5.90;92.60;;;;;;5052227;28;20036;-47
2022/04/17 05:13:17;;;;;;;4.28;3.10;;;5.90;92.60;;;;;;5052240;28;20017;-49
2022/04/17 05:15:43;;;;;;;3.50;3.20;;;5.90;92.60;;;;;;5051772;28;20024;-49
2022/04/17 05:18:09;;;;;;;4.05;3.20;;;5.90;92.50;;;;;;5051408;28;20078;-45
2022/04/17 05:20:34;;;;;;;3.08;2.55;;;6.10;92.30;;;;;;5051673;28;20462;-48
2022/04/17 05:23:21;;;;;;;5.10;2.75;;;6.40;91.90;;;;;;5051607;28;20115;-52
2022/04/17 05:25:49;;;;;;;3.95;3.08;;;6.70;91.50;;;;;;5051440;28;20078;-49
2022/04/17 05:28:15;;;;;;;5.10;3.50;;;6.80;91.10;;;;;;5051225;28;20033;-48
2022/04/17 05:30:41;;;;;;;3.70;3.05;;;6.90;91.00;;;;;;5051238;28;20500;-50
2022/04/17 05:33:07;;;;;;;7.78;3.25;;;7.10;90.60;;;;;;5051649;28;20056;-48
2022/04/17 05:35:33;;;;;;;3.28;2.80;;;6.90;90.80;;;;;;5051459;28;20096;-50
2022/04/17 05:37:58;;;;;;;5.05;2.70;;;7.00;90.80;;;;;;5051230;28;20033;-49
2022/04/17 05:40:24;;;;;;;3.95;3.25;;;7.30;90.70;;;;;;5051191;28;20385;-47
2022/04/17 05:42:49;;;;;;;3.22;2.92;;;7.40;90.50;;;;;;5050100;28;20025;-48
2022/04/17 05:45:15;;;;;;;4.10;2.47;;;7.50;90.20;;;;;;5051281;28;20396;-51
2022/04/17 05:47:41;;;;;;;3.35;2.17;;;7.50;90.20;;;;;;5051111;28;20021;-44
2022/04/17 05:50:07;;;;;;;4.75;2.83;;;7.70;90.20;;;;;;5051170;28;20021;-52
2022/04/17 05:52:33;;;;;;;5.55;2.40;;;7.80;90.10;;;;;;5051369;28;20384;-51
2022/04/17 05:54:59;;;;;;;5.22;2.67;;;8.20;90.00;;;;;;5051198;28;20021;-49
2022/04/17 05:57:24;;;;;;;3.28;2.70;;;8.20;88.50;;;;;;5050928;28;20021;-53
2022/04/17 05:59:50;;;;;;;4.57;2.72;;;8.20;88.40;;;;;;5051152;28;20029;-48
2022/04/17 06:02:16;;;;;;;4.57;2.33;;;8.30;89.40;;;;;;5051302;28;20067;-49
2022/04/17 06:04:42;;;;;;;3.35;2.30;;;8.30;87.90;;;;;;5049846;28;20112;-49
2022/04/17 06:07:08;;;;;;;2.47;2.28;;;8.30;88.10;;;;;;5049813;28;20455;-47
2022/04/17 06:09:34;;;;;;;9.27;2.35;;;8.50;88.70;;;;;;5050470;28;20584;-45
2022/04/17 06:12:00;;;;;;;6.10;2.47;;;8.70;87.30;;;;;;5051069;28;20112;-49
2022/04/17 06:14:25;;;;;;;7.03;2.60;;;8.90;87.00;;;;;;5051113;28;20081;-49
2022/04/17 06:16:51;;;;;;;4.55;2.38;;;9.10;86.50;;;;;;5051159;28;20442;-49
2022/04/17 06:19:17;;;;;;;4.38;2.42;;;9.50;85.40;;;;;;5049713;28;20029;-47
2022/04/17 06:21:43;;;;;;;2.53;2.20;;;9.80;84.10;;;;;;5039580;28;20026;-49
2022/04/17 06:24:08;;;;;;;3.15;2.60;;;10.10;84.30;;;;;;5054308;28;20032;-49
2022/04/17 06:26:34;;;;;;;2.28;2.08;;;10.50;82.10;;;;;;5054789;28;20434;-50
2022/04/17 06:29:07;;;;;;;4.15;2.63;;;10.60;80.20;;;;;;5066351;23;20052;-47
2022/04/17 06:31:34;;;;;;;4.95;2.53;;;10.40;81.20;;;;;;5053939;28;20544;-48
2022/04/17 06:34:00;;;;;;;3.63;2.38;;;10.40;81.90;;;;;;5061891;28;20033;-45
2022/04/17 06:36:26;;;;;;;4.07;2.35;;;10.20;82.00;;;;;;5071150;28;20457;-47
2022/04/17 06:38:51;;;;;;;6.80;2.28;;;10.20;81.60;;;;;;5050666;28;20053;-46
2022/04/17 06:41:17;;;;;;;3.25;2.28;;;10.40;81.70;;;;;;5049864;28;20096;-47
2022/04/17 06:43:42;;;;;;;5.78;2.03;;;10.60;80.30;;;;;;5053524;28;20025;-49
2022/04/17 06:46:08;;;;;;;2.08;1.92;;;10.90;79.40;;;;;;5016668;28;20116;-48
2022/04/17 06:48:33;;;;;;;4.72;1.95;;;11.10;78.30;;;;;;5034342;28;20030;-45
2022/04/17 06:50:59;;;;;;;3.45;2.00;;;11.00;78.30;;;;;;5045644;28;20121;-48
2022/04/17 06:53:25;;;;;;;1.90;1.80;;;10.90;78.50;;;;;;5050151;28;20104;-48
2022/04/17 06:55:52;;;;;;;2.88;1.90;;;11.10;78.40;;;;;;5044111;28;20416;-44
2022/04/17 06:58:18;;;;;;;2.83;2.33;;;11.40;76.80;;;;;;5034039;28;20485;-43
2022/04/17 07:00:45;;;;;;;2.13;1.90;;;11.60;78.20;;;;;;5034327;28;20029;-46
2022/04/17 07:03:11;;;;;;;8.27;5.30;;;12.00;75.90;;;;;;5034136;28;20025;-48
2022/04/17 07:05:36;;;;;;;2.42;1.95;;;12.00;76.50;;;;;;5034331;28;20037;-47
2022/04/17 07:08:04;;;;;;;12.50;7.68;;;12.00;75.00;;;;;;5033363;28;20022;-49
2022/04/17 07:10:33;;;;;;;2.38;1.83;;;12.00;75.80;;;;;;5033924;28;20028;-48
2022/04/17 07:12:59;;;;;;;3.28;2.00;;;11.70;75.00;;;;;;5016377;28;20385;-49
2022/04/17 07:15:24;;;;;;;4.25;2.33;;;11.60;74.60;;;;;;5034291;28;20135;-51
2022/04/17 07:17:50;;;;;;;4.07;2.67;;;11.40;75.00;;;;;;5015762;28;20028;-47
2022/04/17 07:20:16;;;;;;;2.33;2.13;;;11.70;74.90;;;;;;5016284;28;20182;-48
2022/04/17 07:22:42;;;;;;;4.13;2.13;;;11.30;75.80;;;;;;5033949;28;20056;-46
2022/04/17 07:25:09;;;;;;;6.60;2.30;;;11.00;76.70;;;;;;5033794;28;20029;-49
2022/04/17 07:27:39;;;;;;;3.63;2.08;;;11.00;78.00;;;;;;5033243;28;20065;-48
2022/04/17 07:30:10;;;;;;;2.33;2.10;;;11.20;76.50;;;;;;5033814;28;20083;-49
2022/04/17 07:32:35;;;;;;;1.95;1.80;;;11.50;75.80;;;;;;5033353;28;20029;-47
2022/04/17 07:35:01;;;;;;;2.30;1.98;;;11.70;75.60;;;;;;5033891;28;20397;-47
2022/04/17 07:37:27;;;;;;;2.83;2.03;;;12.20;75.90;;;;;;5033279;28;20030;-48
2022/04/17 07:39:53;;;;;;;3.70;1.92;;;12.00;74.70;;;;;;5032941;28;20033;-48
2022/04/17 07:42:20;;;;;;;4.43;2.00;;;12.10;73.80;;;;;;5033101;28;20030;-47
2022/04/17 07:44:49;;;;;;;2.55;2.25;;;12.40;74.50;;;;;;5031715;28;20031;-46
2022/04/17 07:47:16;;;;;;;2.45;2.17;;;12.50;73.00;;;;;;5032482;28;20488;-48
2022/04/17 07:49:42;;;;;;;3.53;2.40;;;13.00;73.30;;;;;;5033166;28;20040;-46
2022/04/17 07:52:08;;;;;;;4.35;2.65;;;13.60;71.20;;;;;;5047732;28;20020;-47
2022/04/17 07:54:34;;;;;;;2.25;2.05;;;14.00;70.60;;;;;;5045008;28;20082;-50
2022/04/17 07:57:00;;;;;;;6.28;2.38;;;14.50;71.10;;;;;;5044550;28;20025;-47
2022/04/17 07:59:25;;;;;;;2.25;2.05;;;15.10;68.20;;;;;;5032994;28;20036;-47
2022/04/17 08:02:01;;;;;;;2.65;2.20;;;15.30;66.90;;;;;;5033597;28;20033;-48
2022/04/17 08:04:27;;;;;;;3.65;2.60;;;16.10;64.00;;;;;;5032766;28;20418;-49
2022/04/17 08:06:53;;;;;;;6.13;2.13;;;17.10;63.30;;;;;;5035364;28;20032;-49
2022/04/17 08:09:18;;;;;;;6.93;2.47;;;17.50;61.60;;;;;;5044800;28;20025;-50
2022/04/17 08:11:51;;;;;;;3.55;2.05;;;16.80;61.70;;;;;;5033609;28;20457;-47
2022/04/17 08:14:19;;;;;;;2.05;1.77;;;17.10;61.70;;;;;;5031984;28;20516;-49
2022/04/17 08:16:45;;;;;;;2.60;2.38;;;16.90;61.30;;;;;;5033378;28;20025;-49
2022/04/17 08:19:10;;;;;;;5.53;1.60;;;17.50;60.70;;;;;;5031598;28;20036;-46
2022/04/17 08:21:37;;;;;;;4.20;1.98;;;17.70;59.20;;;;;;5033368;28;20108;-48
2022/04/17 08:24:02;;;;;;;2.33;1.67;;;17.50;58.80;;;;;;5032911;28;20035;-47
2022/04/17 08:26:28;;;;;;;3.30;1.98;;;17.00;59.30;;;;;;5015275;28;20117;-47
2022/04/17 08:28:54;;;;;;;4.10;2.30;;;17.90;58.10;;;;;;5014298;28;20030;-45
2022/04/17 08:31:19;;;;;;;1.58;1.45;;;17.70;59.10;;;;;;5034812;28;20079;-48
2022/04/17 08:33:45;;;;;;;3.55;1.80;;;17.90;58.90;;;;;;5044633;28;20073;-46
2022/04/17 08:36:12;;;;;;;3.78;2.00;;;17.70;58.50;;;;;;5012023;28;20033;-47
2022/04/17 08:38:38;;;;;;;2.88;2.05;;;17.60;58.00;;;;;;5018348;28;20282;-46
2022/04/17 08:41:07;;;;;;;12.18;9.20;;;17.30;58.50;;;;;;5031173;28;20151;-46
2022/04/17 08:43:33;;;;;;;11.75;5.45;;;16.40;60.00;;;;;;5031706;28;20052;-51
2022/04/17 08:45:58;;;;;;;3.08;2.30;;;16.70;60.40;;;;;;5032767;28;20036;-47
2022/04/17 08:48:24;;;;;;;4.03;1.90;;;16.80;60.10;;;;;;5031881;28;20034;-48
2022/04/17 08:50:54;;;;;;;2.22;1.85;;;17.10;58.90;;;;;;5032066;28;20076;-45
2022/04/17 08:53:20;;;;;;;8.82;1.92;;;16.50;61.40;;;;;;5032112;28;20111;-47
2022/04/17 08:55:47;;;;;;;2.38;2.17;;;17.40;59.30;;;;;;5032986;28;20400;-47
2022/04/17 08:58:13;;;;;;;5.97;2.20;;;17.20;59.00;;;;;;5042293;28;20032;-46
2022/04/17 09:00:39;;;;;;;3.45;1.75;;;16.50;59.50;;;;;;5033039;28;20489;-44
2022/04/17 09:03:08;;;;;;;2.95;2.00;;;16.80;59.70;;;;;;5032235;28;20033;-47
2022/04/17 09:05:35;;;;;;;4.35;2.00;;;16.30;59.90;;;;;;5031972;28;20112;-45
2022/04/17 09:08:13;;;;;;;3.15;2.13;;;15.90;60.50;;;;;;5031673;28;20063;-46
2022/04/17 09:10:39;;;;;;;2.65;2.13;;;15.30;60.70;;;;;;5031729;28;20031;-46
2022/04/17 09:13:05;;;;;;;2.90;2.00;;;15.20;62.10;;;;;;5031915;28;20025;-45
2022/04/17 09:15:32;;;;;;;4.90;2.05;;;15.00;61.70;;;;;;5031256;28;20112;-45
2022/04/17 09:17:58;;;;;;;3.70;2.38;;;15.10;63.60;;;;;;5031569;28;20049;-45
2022/04/17 09:20:25;;;;;;;4.38;2.30;;;14.80;61.50;;;;;;5031653;28;20029;-46
2022/04/17 09:22:54;;;;;;;5.70;2.20;;;14.70;63.40;;;;;;5031957;28;20030;-47
2022/04/17 09:25:22;;;;;;;2.55;1.90;;;14.70;63.60;;;;;;5031746;28;20033;-47
2022/04/17 09:27:59;;;;;;;3.92;2.25;;;14.50;63.20;;;;;;5031535;28;20445;-45
2022/04/17 09:30:33;;;;;;;2.47;2.28;;;14.40;64.10;;;;;;5031609;28;20104;-45
2022/04/17 09:33:07;;;;;;;3.65;2.55;;;14.60;63.80;;;;;;5031575;28;20021;-45
2022/04/17 09:35:32;;;;;;;4.65;2.17;;;14.90;63.10;;;;;;5031433;28;20014;-46
2022/04/17 09:37:59;;;;;;;3.20;2.10;;;14.80;63.30;;;;;;5031416;28;20032;-44
2022/04/17 09:40:27;;;;;;;5.63;2.35;;;15.00;63.80;;;;;;5031556;28;20108;-45
2022/04/17 09:43:12;;;;;;;2.75;1.98;;;14.50;62.90;;;;;;5030856;28;20073;-46
2022/04/17 09:46:00;;;;;;;3.95;2.00;;;14.60;64.80;;;;;;5033329;28;20113;-46
2022/04/17 09:48:38;;;;;;;3.45;2.33;;;15.10;62.60;;;;;;5033312;28;20124;-46
2022/04/17 09:51:23;;;;;;;2.65;2.17;;;15.00;62.70;;;;;;5032769;28;20025;-45
2022/04/17 09:54:05;;;;;;;2.75;1.80;;;14.70;62.90;;;;;;5033544;28;20040;-45
2022/04/17 09:56:36;;;;;;;2.83;2.03;;;14.60;63.50;;;;;;5034886;28;20026;-45
2022/04/17 09:59:14;;;;;;;2.45;2.05;;;14.40;63.10;;;;;;5017746;28;20049;-45
2022/04/17 10:01:40;;;;;;;7.53;2.95;;;14.20;64.00;;;;;;5035655;28;20389;-45
2022/04/17 10:04:06;;;;;;;2.10;1.90;;;14.10;63.60;;;;;;5035292;28;20029;-45
2022/04/17 10:06:34;;;;;;;3.10;2.03;;;14.10;64.70;;;;;;5017768;28;20397;-45
2022/04/17 10:09:01;;;;;;;2.92;2.08;;;14.30;64.30;;;;;;5035344;28;20040;-42
2022/04/17 10:11:27;;;;;;;4.15;2.10;;;14.30;64.20;;;;;;5035411;28;20036;-48
2022/04/17 10:13:53;;;;;;;1.83;1.73;;;14.30;64.10;;;;;;5016928;28;20210;-45
2022/04/17 10:16:21;;;;;;;4.72;1.77;;;14.30;62.80;;;;;;5035104;28;20022;-44
2022/04/17 10:18:48;;;;;;;2.28;1.80;;;14.60;63.10;;;;;;5034539;28;20064;-45
2022/04/17 10:21:16;;;;;;;2.50;1.85;;;14.30;61.80;;;;;;5034897;28;20104;-47
2022/04/17 10:23:45;;;;;;;2.40;1.90;;;14.30;62.90;;;;;;5035186;28;20104;-49
2022/04/17 10:26:14;;;;;;;1.60;1.50;;;14.10;62.40;;;;;;5035097;28;20029;-44
2022/04/17 10:28:50;;;;;;;14.63;9.30;;;13.90;61.50;;;;;;5034599;28;20489;-46
2022/04/17 10:31:17;;;;;;;5.95;2.50;;;13.70;62.30;;;;;;5034485;28;20095;-48
2022/04/17 10:34:11;;;;;;;2.63;2.33;;;13.80;63.60;;;;;;5034827;28;20021;-49
2022/04/17 10:36:51;;;;;;;2.13;1.80;;;13.90;62.80;;;;;;5034707;28;20392;-47
2022/04/17 10:39:23;;;;;;;3.78;1.52;;;14.20;63.30;;;;;;5033189;28;20029;-47
2022/04/17 10:41:49;;;;;;;3.58;1.98;;;14.40;60.70;;;;;;5016635;28;20022;-46
2022/04/17 10:44:16;;;;;;;4.20;1.92;;;14.20;61.20;;;;;;5034733;28;20032;-45
2022/04/17 10:46:49;;;;;;;5.07;1.90;;;13.90;60.30;;;;;;5034520;28;20116;-44
2022/04/17 10:49:20;;;;;;;2.50;1.70;;;14.10;60.60;;;;;;5032615;28;20025;-48
2022/04/17 10:51:51;;;;;;;2.75;1.40;;;14.10;60.30;;;;;;5034601;28;20072;-47
2022/04/17 10:54:17;;;;;;;1.77;1.50;;;14.00;58.90;;;;;;5034209;28;20080;-47
2022/04/17 10:56:54;;;;;;;5.32;1.70;;;14.20;59.50;;;;;;5034112;28;20022;-46
2022/04/17 10:59:33;;;;;;;3.85;1.70;;;14.40;58.40;;;;;;5034204;28;20029;-48
2022/04/17 11:02:03;;;;;;;3.67;1.52;;;14.40;60.20;;;;;;5034331;28;20365;-47
2022/04/17 11:04:53;;;;;;;3.15;1.50;;;14.40;59.30;;;;;;5033912;28;20543;-45
2022/04/17 11:07:20;;;;;;;1.98;1.88;;;14.40;59.30;;;;;;5033419;28;20022;-49
2022/04/17 11:09:46;;;;;;;1.63;1.52;;;14.30;60.90;;;;;;5034370;28;20629;-45
2022/04/17 11:12:18;;;;;;;2.15;1.52;;;14.40;60.60;;;;;;5034367;28;20028;-50
2022/04/17 11:15:01;;;;;;;2.47;1.58;;;14.50;59.70;;;;;;5033829;28;20519;-48
2022/04/17 11:17:31;;;;;;;1.55;1.17;;;14.50;61.10;;;;;;5033687;28;20029;-44
2022/04/17 11:19:58;;;;;;;3.75;1.40;;;14.40;58.10;;;;;;5034226;28;20103;-45
2022/04/17 11:22:33;;;;;;;3.35;1.60;;;14.20;58.60;;;;;;5034228;28;20029;-47
2022/04/17 11:24:58;;;;;;;5.10;1.70;;;14.40;60.90;;;;;;5034382;28;20029;-47
2022/04/17 11:27:46;;;;;;;2.35;1.52;;;14.50;58.80;;;;;;5033938;28;20030;-45
2022/04/17 11:30:15;;;;;;;4.53;1.50;;;14.50;56.50;;;;;;5033895;28;20041;-45
2022/04/17 11:32:41;;;;;;;1.77;1.40;;;14.60;58.10;;;;;;5034113;28;20537;-49
2022/04/17 11:35:11;;;;;;;1.45;1.25;;;14.70;58.20;;;;;;5034622;28;20108;-45
2022/04/17 11:37:38;;;;;;;3.60;1.45;;;14.80;58.10;;;;;;5034106;28;20052;-45
2022/04/17 11:40:13;;;;;;;5.55;1.90;;;14.70;58.20;;;;;;5034198;28;20024;-45
2022/04/17 11:42:44;;;;;;;1.50;1.40;;;14.60;57.00;;;;;;5033801;28;20378;-46
2022/04/17 11:45:11;;;;;;;3.85;1.50;;;14.50;57.30;;;;;;5033839;28;20033;-45
2022/04/17 11:47:44;;;;;;;4.07;1.80;;;14.40;58.30;;;;;;5033512;28;20112;-45
2022/04/17 11:50:19;;;;;;;2.10;1.60;;;14.40;59.70;;;;;;5034100;28;20036;-46
2022/04/17 11:52:48;;;;;;;;;;;14.50;60.80;;;;;;5034173;28;20100;-47
2022/04/17 11:55:13;;;;;;;2.75;1.70;;;14.60;61.20;;;;;;5033703;28;19940;-46
2022/04/17 11:57:39;;;;;;;4.82;1.48;;;14.60;61.00;;;;;;5031185;28;20072;-45
2022/04/17 12:00:05;;;;;;;2.00;1.25;;;14.70;61.70;;;;;;5033138;28;20021;-45
2022/04/17 12:02:31;;;;;;;2.17;1.23;;;14.80;57.40;;;;;;5033432;28;20024;-46
2022/04/17 12:05:12;;;;;;;2.95;1.80;;;14.80;57.20;;;;;;5032998;28;20029;-45
2022/04/17 12:07:38;;;;;;;5.38;1.40;;;14.90;59.30;;;;;;5032766;28;20176;-44
2022/04/17 12:10:08;;;;;;;2.63;2.35;;;15.00;61.10;;;;;;5032775;28;20021;-46
2022/04/17 12:12:38;;;;;;;38.72;27.27;;;14.90;59.10;;;;;;5033014;28;20033;-45
2022/04/17 12:15:08;;;;;;;4.15;1.70;;;14.90;59.50;;;;;;5032407;28;20013;-45
2022/04/17 12:17:35;;;;;;;1.40;1.25;;;15.00;58.40;;;;;;5032220;28;20473;-45
2022/04/17 12:20:05;;;;;;;1.20;1.10;;;15.00;57.30;;;;;;5031506;28;20027;-45
2022/04/17 12:22:30;;;;;;;1.55;1.45;;;15.00;57.00;;;;;;5031375;28;20021;-45
2022/04/17 12:24:58;;;;;;;4.63;1.92;;;15.10;57.00;;;;;;5030908;28;20518;-46
2022/04/17 12:27:23;;;;;;;2.28;1.30;;;15.10;57.40;;;;;;5030836;28;20022;-45
2022/04/17 12:29:53;;;;;;;5.88;1.52;;;15.10;57.00;;;;;;5051388;23;20071;-46
2022/04/17 12:32:23;;;;;;;2.17;1.45;;;15.10;56.90;;;;;;5048071;28;20025;-45
2022/04/17 12:35:00;;;;;;;2.00;1.25;;;15.20;57.20;;;;;;5032556;28;20024;-47
2022/04/17 12:37:30;;;;;;;2.03;1.23;;;15.40;57.60;;;;;;5032159;28;20446;-43
2022/04/17 12:40:21;;;;;;;2.50;1.40;;;15.40;56.80;;;;;;5032670;28;20021;-44
2022/04/17 12:42:47;;;;;;;1.48;1.08;;;15.50;55.70;;;;;;5032659;28;20080;-44
2022/04/17 12:45:33;;;;;;;1.35;0.98;;;15.60;56.40;;;;;;5032460;28;20025;-45
2022/04/17 12:48:08;;;;;;;;;;;15.50;53.80;;;;;;5048648;28;20044;-40
2022/04/17 12:50:34;;;;;;;2.03;1.00;;;15.40;55.30;;;;;;5032476;28;19978;-44
2022/04/17 12:53:01;;;;;;;2.00;1.50;;;15.40;54.70;;;;;;5034095;28;20509;-42
2022/04/17 12:55:38;;;;;;;1.92;1.30;;;15.40;54.60;;;;;;5033274;28;20029;-41
2022/04/17 12:58:03;;;;;;;1.02;0.98;;;15.50;54.10;;;;;;5033346;28;20013;-47
2022/04/17 13:00:30;;;;;;;1.05;0.98;;;15.40;54.30;;;;;;5032258;28;20392;-43
2022/04/17 13:03:09;;;;;;;1.85;1.00;;;15.50;55.50;;;;;;5032453;28;20105;-47
2022/04/17 13:05:35;;;;;;;2.75;1.45;;;15.60;54.80;;;;;;5032802;28;20032;-45